createdAt,value
2019-05-16T00:01:51.693Z,1.40
2019-05-16T00:04:18.332Z,1.80
2019-05-16T00:06:44.883Z,1.90
2019-05-16T00:09:11.508Z,2.00
2019-05-16T00:11:38.535Z,2.00
2019-05-16T00:14:05.199Z,2.30
2019-05-16T00:16:31.835Z,1.70
2019-05-16T00:18:58.387Z,1.77
2019-05-16T00:21:25.002Z,1.50
2019-05-16T00:23:51.568Z,1.65
2019-05-16T00:26:19.708Z,1.80
2019-05-16T00:28:48.443Z,1.80
2019-05-16T00:31:14.926Z,1.40
2019-05-16T00:33:41.550Z,1.85
2019-05-16T00:36:09.207Z,1.82
2019-05-16T00:38:37.837Z,1.70
2019-05-16T00:41:04.369Z,2.30
2019-05-16T00:43:30.900Z,1.90
2019-05-16T00:45:58.961Z,2.02
2019-05-16T00:48:25.865Z,1.70
2019-05-16T00:50:52.401Z,1.62
2019-05-16T00:53:19.045Z,2.25
2019-05-16T00:55:47.827Z,1.72
2019-05-16T00:58:18.680Z,2.10
2019-05-16T01:00:50.062Z,2.65
2019-05-16T01:03:16.307Z,1.82
2019-05-16T01:05:43.916Z,2.05
2019-05-16T01:08:11.275Z,2.40
2019-05-16T01:10:39.043Z,2.20
2019-05-16T01:13:07.846Z,1.95
2019-05-16T01:15:34.131Z,1.82
2019-05-16T01:18:00.717Z,2.30
2019-05-16T01:20:27.958Z,2.72
2019-05-16T01:22:54.683Z,1.75
2019-05-16T01:25:21.318Z,2.37
2019-05-16T01:27:47.876Z,2.10
2019-05-16T01:30:14.872Z,2.25
2019-05-16T01:32:41.419Z,2.08
2019-05-16T01:35:08.409Z,2.33
2019-05-16T01:37:35.305Z,2.15
2019-05-16T01:40:02.627Z,2.42
2019-05-16T01:42:29.149Z,2.65
2019-05-16T01:44:57.706Z,2.60
2019-05-16T01:47:24.107Z,2.37
2019-05-16T01:49:50.639Z,2.22
2019-05-16T01:52:17.818Z,2.75
2019-05-16T01:54:44.518Z,2.12
2019-05-16T01:57:11.039Z,2.83
2019-05-16T01:59:38.105Z,2.60
2019-05-16T02:02:04.702Z,2.83
2019-05-16T02:04:31.348Z,2.15
2019-05-16T02:06:58.435Z,2.58
2019-05-16T02:09:25.241Z,2.42
2019-05-16T02:11:51.871Z,3.05
2019-05-16T02:14:18.437Z,3.15
2019-05-16T02:16:44.991Z,2.30
2019-05-16T02:19:11.528Z,2.52
2019-05-16T02:21:38.860Z,3.10
2019-05-16T02:24:05.574Z,2.58
2019-05-16T02:26:32.069Z,3.15
2019-05-16T02:29:00.774Z,3.42
2019-05-16T02:31:27.084Z,2.70
2019-05-16T02:33:53.663Z,3.00
2019-05-16T02:36:21.643Z,2.50
2019-05-16T02:38:51.393Z,2.60
2019-05-16T02:41:16.996Z,2.75
2019-05-16T02:43:43.577Z,3.00
2019-05-16T02:46:11.907Z,2.72
2019-05-16T02:48:41.057Z,2.50
2019-05-16T02:51:10.817Z,2.72
2019-05-16T02:53:36.146Z,3.08
2019-05-16T02:56:02.895Z,3.33
2019-05-16T02:58:30.661Z,3.25
2019-05-16T03:01:01.719Z,3.00
2019-05-16T03:03:27.350Z,2.80
2019-05-16T03:05:54.797Z,3.42
2019-05-16T03:08:21.842Z,2.67
2019-05-16T03:10:51.973Z,2.85
2019-05-16T03:13:22.052Z,2.77
2019-05-16T03:15:50.907Z,2.70
2019-05-16T03:18:21.521Z,2.80
2019-05-16T03:20:51.168Z,2.85
2019-05-16T03:23:21.552Z,3.12
2019-05-16T03:25:46.484Z,3.08
2019-05-16T03:28:13.127Z,2.62
2019-05-16T03:30:44.874Z,2.47
2019-05-16T03:33:15.032Z,2.87
2019-05-16T03:35:36.639Z,2.90
2019-05-16T03:38:05.530Z,2.22
2019-05-16T03:40:33.623Z,3.27
2019-05-16T03:43:01.529Z,3.20
2019-05-16T03:45:31.475Z,3.10
2019-05-16T03:48:02.259Z,3.00
2019-05-16T03:50:27.075Z,3.02
2019-05-16T03:52:53.593Z,2.60
2019-05-16T03:55:21.355Z,2.65
2019-05-16T03:57:51.386Z,2.50
2019-05-16T04:00:21.983Z,2.58
2019-05-16T04:02:52.065Z,2.50
2019-05-16T04:05:16.929Z,3.40
2019-05-16T04:07:43.467Z,2.47
2019-05-16T04:10:10.912Z,2.75
2019-05-16T04:12:41.465Z,2.50
2019-05-16T04:15:07.211Z,2.10
2019-05-16T04:17:33.844Z,2.55
2019-05-16T04:20:02.219Z,3.00
2019-05-16T04:22:31.509Z,2.70
2019-05-16T04:24:57.298Z,2.70
2019-05-16T04:27:23.868Z,2.47
2019-05-16T04:29:51.300Z,2.40
2019-05-16T04:32:20.808Z,2.70
2019-05-16T04:34:46.595Z,2.70
2019-05-16T04:37:13.166Z,2.62
2019-05-16T04:39:41.440Z,3.30
2019-05-16T04:42:10.836Z,2.87
2019-05-16T04:44:36.633Z,2.62
2019-05-16T04:47:03.243Z,2.60
2019-05-16T04:49:32.017Z,2.55
2019-05-16T04:52:00.621Z,3.47
2019-05-16T04:54:26.940Z,3.15
2019-05-16T04:56:53.513Z,2.50
2019-05-16T04:59:20.801Z,2.72
2019-05-16T05:01:50.849Z,3.33
2019-05-16T05:04:15.971Z,3.25
2019-05-16T05:06:42.561Z,2.62
2019-05-16T05:09:11.681Z,2.67
2019-05-16T05:11:37.572Z,2.80
2019-05-16T05:14:04.149Z,2.55
2019-05-16T05:16:30.788Z,2.95
2019-05-16T05:19:00.143Z,2.77
2019-05-16T05:21:25.819Z,3.50
2019-05-16T05:23:52.342Z,2.77
2019-05-16T05:26:19.978Z,2.30
2019-05-16T05:28:46.629Z,2.98
2019-05-16T05:31:13.168Z,3.08
2019-05-16T05:33:41.655Z,2.58
2019-05-16T05:36:11.955Z,3.52
2019-05-16T05:38:40.271Z,3.05
2019-05-16T05:41:06.978Z,3.33
2019-05-16T05:43:33.507Z,3.85
2019-05-16T05:46:00.712Z,3.45
2019-05-16T05:48:30.567Z,4.53
2019-05-16T05:50:56.131Z,4.35
2019-05-16T05:53:22.663Z,3.65
2019-05-16T05:55:50.973Z,3.20
2019-05-16T05:58:20.377Z,3.12
2019-05-16T06:00:46.359Z,2.98
2019-05-16T06:03:12.994Z,3.80
2019-05-16T06:05:41.307Z,4.45
2019-05-16T06:08:10.526Z,3.77
2019-05-16T06:10:36.462Z,3.72
2019-05-16T06:13:03.039Z,4.20
2019-05-16T06:15:30.611Z,8.98
2019-05-16T06:18:00.084Z,4.00
2019-05-16T06:20:25.825Z,3.55
2019-05-16T06:22:52.360Z,6.10
2019-05-16T06:25:22.771Z,4.45
2019-05-16T06:27:50.970Z,5.37
2019-05-16T06:30:17.122Z,4.17
2019-05-16T06:32:43.657Z,3.85
2019-05-16T06:35:10.896Z,6.30
2019-05-16T06:37:37.495Z,5.03
2019-05-16T06:40:04.726Z,4.67
2019-05-16T06:42:31.367Z,5.05
2019-05-16T06:45:00.578Z,6.17
2019-05-16T06:47:26.385Z,4.80
2019-05-16T06:49:52.914Z,5.35
2019-05-16T06:52:19.764Z,3.87
2019-05-16T06:54:46.467Z,4.12
2019-05-16T06:57:12.984Z,4.42
2019-05-16T06:59:40.507Z,5.42
2019-05-16T07:02:07.104Z,5.75
2019-05-16T07:04:33.677Z,5.83
2019-05-16T07:07:02.924Z,4.78
2019-05-16T07:09:30.146Z,5.65
2019-05-16T07:11:56.757Z,5.12
2019-05-16T07:14:23.488Z,4.20
2019-05-16T07:16:50.026Z,5.85
2019-05-16T07:19:16.555Z,7.00
2019-05-16T07:21:43.193Z,7.00
2019-05-16T07:24:10.916Z,6.80
2019-05-16T07:26:40.343Z,6.83
2019-05-16T07:29:06.194Z,6.58
2019-05-16T07:31:32.717Z,5.75
2019-05-16T07:34:00.815Z,5.70
2019-05-16T07:36:27.581Z,5.33
2019-05-16T07:38:54.873Z,4.78
2019-05-16T07:41:21.473Z,6.30
2019-05-16T07:43:50.304Z,6.97
2019-05-16T07:46:16.504Z,6.97
2019-05-16T07:48:43.019Z,5.90
2019-05-16T07:51:10.506Z,6.12
2019-05-16T07:53:40.073Z,7.35
2019-05-16T07:56:05.755Z,6.30
2019-05-16T07:58:32.290Z,5.20
2019-05-16T08:01:06.803Z,7.08
2019-05-16T08:03:27.281Z,5.25
2019-05-16T08:05:53.821Z,5.42
2019-05-16T08:08:24.059Z,5.40
2019-05-16T08:10:50.734Z,5.58
2019-05-16T08:13:18.503Z,4.85
2019-05-16T08:15:45.680Z,4.83
2019-05-16T08:18:12.206Z,4.92
2019-05-16T08:20:41.321Z,5.42
2019-05-16T08:23:07.192Z,4.60
2019-05-16T08:25:35.238Z,5.85
2019-05-16T08:28:01.793Z,4.97
2019-05-16T08:30:31.182Z,4.65
2019-05-16T08:32:56.771Z,3.75
2019-05-16T08:35:23.423Z,4.40
2019-05-16T08:37:51.466Z,4.50
2019-05-16T08:40:21.678Z,4.90
2019-05-16T08:42:51.580Z,4.55
2019-05-16T08:45:16.971Z,5.03
2019-05-16T08:47:43.744Z,4.42
2019-05-16T08:52:43.537Z,3.50
2019-05-16T08:55:12.565Z,4.55
2019-05-16T08:57:40.846Z,4.55
2019-05-16T09:00:07.924Z,5.08
2019-05-16T09:02:36.835Z,4.20
2019-05-16T09:05:06.016Z,4.58
2019-05-16T09:07:33.009Z,4.12
2019-05-16T09:10:00.987Z,4.20
2019-05-16T09:12:27.953Z,4.53
2019-05-16T09:14:54.646Z,4.20
2019-05-16T09:17:21.198Z,3.67
2019-05-16T09:18:30.745Z,4.65
2019-05-16T09:19:53.781Z,4.03
2019-05-16T09:22:20.319Z,3.00
2019-05-16T09:24:48.138Z,3.70
2019-05-16T09:27:17.711Z,3.58
2019-05-16T09:29:43.446Z,3.72
2019-05-16T09:32:17.086Z,3.20
2019-05-16T09:34:38.521Z,3.45
2019-05-16T09:37:08.237Z,3.20
2019-05-16T09:39:33.458Z,2.98
2019-05-16T09:41:59.992Z,3.00
2019-05-16T09:44:27.344Z,3.60
2019-05-16T09:46:56.835Z,3.25
2019-05-16T09:49:25.104Z,3.40
2019-05-16T09:51:51.093Z,3.50
2019-05-16T09:54:17.610Z,2.58
2019-05-16T09:56:46.351Z,3.17
2019-05-16T09:59:12.666Z,2.98
2019-05-16T10:01:39.193Z,3.83
2019-05-16T10:04:06.721Z,3.58
2019-05-16T10:06:33.457Z,3.80
2019-05-16T10:09:00.103Z,3.42
2019-05-16T10:11:31.108Z,3.35
2019-05-16T10:13:55.179Z,3.45
2019-05-16T10:16:21.713Z,3.30
2019-05-16T10:18:48.244Z,3.67
2019-05-16T10:21:19.630Z,3.12
2019-05-16T10:23:43.207Z,3.35
2019-05-16T10:26:09.847Z,3.17
2019-05-16T10:28:38.297Z,3.37
2019-05-16T10:31:06.897Z,3.45
2019-05-16T10:33:33.278Z,3.40
2019-05-16T10:35:59.798Z,2.67
2019-05-16T10:38:28.357Z,2.85
2019-05-16T10:40:56.568Z,2.75
2019-05-16T10:43:23.219Z,2.75
2019-05-16T10:45:49.747Z,2.60
2019-05-16T10:48:17.670Z,2.95
2019-05-16T10:50:44.538Z,2.30
2019-05-16T10:53:42.420Z,2.85
2019-05-16T10:55:39.671Z,3.10
2019-05-16T10:58:07.393Z,2.75
2019-05-16T11:01:05.398Z,2.52
2019-05-16T11:03:03.203Z,2.62
2019-05-16T11:05:34.935Z,2.33
2019-05-16T11:07:58.257Z,3.47
2019-05-16T11:10:26.873Z,2.90
2019-05-16T11:12:58.544Z,3.02
2019-05-16T11:15:22.737Z,2.85
2019-05-16T11:17:49.274Z,2.65
2019-05-16T11:20:20.137Z,2.60
2019-05-16T11:22:47.829Z,3.02
2019-05-16T11:25:24.608Z,3.08
2019-05-16T11:27:43.307Z,3.10
2019-05-16T11:30:10.626Z,2.72
2019-05-16T11:32:37.650Z,3.00
2019-05-16T11:35:07.309Z,3.90
2019-05-16T11:37:36.880Z,3.30
2019-05-16T11:40:06.806Z,3.87
2019-05-16T11:42:33.491Z,3.42
2019-05-16T11:45:00.017Z,3.72
2019-05-16T11:47:27.181Z,3.83
2019-05-16T11:49:53.893Z,3.45
2019-05-16T11:52:20.409Z,3.45
2019-05-16T11:54:47.014Z,3.47
2019-05-16T11:57:13.566Z,3.20
2019-05-16T11:59:40.102Z,3.47
2019-05-16T12:02:06.640Z,3.33
2019-05-16T12:04:33.221Z,3.40
2019-05-16T12:06:59.747Z,3.90
2019-05-16T12:09:33.698Z,3.02
2019-05-16T12:12:02.659Z,3.72
2019-05-16T12:14:23.215Z,3.15
2019-05-16T12:16:49.741Z,3.45
2019-05-16T12:19:18.144Z,3.05
2019-05-16T12:21:44.709Z,3.58
2019-05-16T12:24:11.246Z,3.30
2019-05-16T12:26:37.783Z,3.60
2019-05-16T12:29:04.323Z,2.87
2019-05-16T12:31:32.575Z,3.30
2019-05-16T12:33:59.901Z,2.80
2019-05-16T12:36:31.211Z,3.15
2019-05-16T12:38:57.507Z,3.80
2019-05-16T12:41:28.452Z,4.03
2019-05-16T12:43:53.686Z,3.55
2019-05-16T12:46:20.302Z,2.90
2019-05-16T12:48:47.450Z,3.52
2019-05-16T12:51:14.561Z,3.10
2019-05-16T12:53:41.096Z,3.00
2019-05-16T12:56:07.630Z,3.85
2019-05-16T12:58:41.413Z,3.70
2019-05-16T13:01:02.903Z,3.00
2019-05-16T13:03:29.432Z,3.30
2019-05-16T13:05:57.112Z,3.02
2019-05-16T13:08:26.625Z,4.30
2019-05-16T13:10:57.827Z,3.58
2019-05-16T13:13:24.482Z,4.35
2019-05-16T13:15:51.034Z,3.37
2019-05-16T13:18:17.574Z,3.20
2019-05-16T13:20:46.531Z,4.10
2019-05-16T13:23:14.730Z,3.02
2019-05-16T13:25:41.106Z,3.35
2019-05-16T13:28:08.767Z,3.70
2019-05-16T13:30:37.717Z,2.80
2019-05-16T13:33:03.810Z,3.05
2019-05-16T13:35:30.345Z,3.05
2019-05-16T13:37:58.001Z,3.22
2019-05-16T13:40:24.665Z,4.00
2019-05-16T13:42:51.239Z,3.50
2019-05-16T13:45:19.270Z,3.02
2019-05-16T13:47:48.443Z,3.92
2019-05-16T13:50:16.686Z,3.08
2019-05-16T13:52:42.962Z,3.00
2019-05-16T13:55:09.798Z,3.17
2019-05-16T13:57:37.392Z,4.42
2019-05-16T14:00:07.651Z,3.50
2019-05-16T14:02:37.620Z,3.40
2019-05-16T14:05:07.528Z,3.30
2019-05-16T14:07:37.054Z,3.72
2019-05-16T14:10:07.946Z,3.80
2019-05-16T14:12:36.620Z,3.83
2019-05-16T14:15:07.924Z,3.30
2019-05-16T14:17:37.101Z,3.55
2019-05-16T14:20:14.572Z,3.37
2019-05-16T14:22:38.646Z,4.08
2019-05-16T14:25:07.153Z,3.17
2019-05-16T14:27:33.825Z,3.00
2019-05-16T14:30:00.733Z,3.60
2019-05-16T14:32:27.311Z,3.45
2019-05-16T14:34:53.894Z,3.47
2019-05-16T14:37:20.490Z,3.67
2019-05-16T14:39:48.709Z,3.25
2019-05-16T14:42:17.830Z,3.55
2019-05-16T14:45:03.504Z,3.25
2019-05-16T14:47:13.093Z,2.85
2019-05-16T14:49:39.646Z,2.62
2019-05-16T14:52:06.255Z,3.85
2019-05-16T14:54:32.768Z,2.95
2019-05-16T14:57:01.074Z,2.50
2019-05-16T14:59:30.654Z,3.22
2019-05-16T15:01:58.141Z,3.45
2019-05-16T15:04:29.870Z,2.83
2019-05-16T15:06:53.759Z,2.90
2019-05-16T15:09:20.313Z,2.85
2019-05-16T15:11:46.839Z,3.30
2019-05-16T15:14:13.495Z,3.42
2019-05-16T15:16:40.022Z,3.72
2019-05-16T15:19:08.140Z,2.80
2019-05-16T15:21:34.886Z,2.98
2019-05-16T15:24:01.415Z,2.40
2019-05-16T15:26:27.946Z,2.95
2019-05-16T15:28:54.500Z,2.70
2019-05-16T15:31:21.410Z,2.80
2019-05-16T15:33:47.924Z,2.80
2019-05-16T15:36:16.738Z,2.17
2019-05-16T15:38:42.958Z,1.70
2019-05-16T15:41:09.486Z,3.00
2019-05-16T15:43:36.850Z,3.08
2019-05-16T15:46:07.671Z,2.90
2019-05-16T15:48:33.181Z,2.08
2019-05-16T15:51:00.168Z,2.60
2019-05-16T15:53:27.947Z,2.75
2019-05-16T15:55:54.885Z,3.50
2019-05-16T15:58:21.489Z,2.20
2019-05-16T16:00:49.228Z,2.50
2019-05-16T16:03:17.635Z,2.12
2019-05-16T16:05:44.420Z,2.55
2019-05-16T16:08:11.867Z,2.30
2019-05-16T16:10:40.935Z,2.58
2019-05-16T16:13:08.033Z,2.33
2019-05-16T16:15:49.549Z,1.72
2019-05-16T16:18:08.835Z,2.37
2019-05-16T16:20:35.158Z,1.90
2019-05-16T16:23:02.111Z,2.40
2019-05-16T16:25:28.869Z,2.05
2019-05-16T16:27:57.298Z,2.45
2019-05-16T16:30:24.049Z,2.08
2019-05-16T16:32:50.567Z,2.00
2019-05-16T16:35:17.440Z,2.12
2019-05-16T16:37:44.159Z,2.50
2019-05-16T16:40:12.788Z,2.70
2019-05-16T16:42:39.537Z,2.20
2019-05-16T16:45:07.563Z,2.47
2019-05-16T16:47:34.104Z,2.65
2019-05-16T16:50:00.785Z,2.12
2019-05-16T16:52:27.468Z,2.20
2019-05-16T16:54:53.999Z,2.10
2019-05-16T16:57:20.560Z,2.00
2019-05-16T16:59:47.772Z,1.90
2019-05-16T17:02:16.999Z,2.60
2019-05-16T17:04:42.864Z,2.20
2019-05-16T17:07:09.382Z,2.02
2019-05-16T17:09:37.191Z,2.30
2019-05-16T17:12:11.724Z,2.10
2019-05-16T17:14:38.246Z,2.30
2019-05-16T17:17:11.606Z,2.30
2019-05-16T17:19:38.432Z,3.30
2019-05-16T17:22:14.695Z,2.37
2019-05-16T17:24:36.628Z,1.90
2019-05-16T17:27:03.427Z,2.10
2019-05-16T17:29:30.362Z,1.77
2019-05-16T17:32:05.935Z,2.17
2019-05-16T17:34:26.712Z,1.52
2019-05-16T17:36:53.368Z,1.65
2019-05-16T17:39:19.908Z,1.57
2019-05-16T17:41:54.095Z,2.00
2019-05-16T17:44:14.886Z,2.00
2019-05-16T17:46:41.415Z,2.20
2019-05-16T17:49:07.952Z,2.17
2019-05-16T17:51:36.604Z,1.65
2019-05-16T17:54:03.603Z,1.70
2019-05-16T17:56:30.121Z,1.98
2019-05-16T17:58:56.961Z,1.80
2019-05-16T18:01:23.705Z,1.90
2019-05-16T18:03:50.243Z,1.60
2019-05-16T18:06:17.052Z,1.27
2019-05-16T18:08:46.684Z,1.55
2019-05-16T18:11:12.327Z,1.40
2019-05-16T18:13:38.880Z,1.67
2019-05-16T18:16:07.413Z,1.77
2019-05-16T18:18:37.384Z,1.42
2019-05-16T18:21:03.702Z,1.42
2019-05-16T18:23:30.344Z,1.70
2019-05-16T18:25:57.571Z,1.50
2019-05-16T18:28:26.676Z,1.30
2019-05-16T18:30:53.275Z,1.50
2019-05-16T18:33:19.815Z,1.42
2019-05-16T18:35:46.677Z,1.50
2019-05-16T18:38:13.515Z,1.50
2019-05-16T18:40:40.056Z,1.40
2019-05-16T18:43:08.153Z,1.42
2019-05-16T18:45:36.592Z,1.47
2019-05-16T18:48:06.989Z,1.55
2019-05-16T18:50:33.277Z,1.50
2019-05-16T18:53:00.535Z,1.75
2019-05-16T18:55:27.099Z,1.35
2019-05-16T18:57:53.618Z,1.50
2019-05-16T19:00:20.362Z,1.47
2019-05-16T19:02:47.884Z,1.35
2019-05-16T19:05:17.214Z,1.40
2019-05-16T19:07:43.955Z,1.50
2019-05-16T19:10:10.589Z,1.50
2019-05-16T19:12:37.395Z,1.25
2019-05-16T19:15:07.245Z,1.60
2019-05-16T19:17:33.857Z,1.67
2019-05-16T19:20:00.394Z,1.50
2019-05-16T19:22:26.915Z,1.50
2019-05-16T19:24:53.458Z,1.80
2019-05-16T19:27:19.982Z,1.60
2019-05-16T19:29:46.582Z,1.47
2019-05-16T19:32:13.110Z,1.77
2019-05-16T19:34:39.642Z,1.60
2019-05-16T19:37:06.941Z,1.62
2019-05-16T19:39:33.697Z,2.00
2019-05-16T19:42:00.236Z,1.40
2019-05-16T19:44:27.339Z,1.75
2019-05-16T19:46:54.016Z,1.67
2019-05-16T19:49:20.545Z,2.00
2019-05-16T19:51:49.066Z,2.02
2019-05-16T19:54:16.356Z,1.85
2019-05-16T19:56:43.123Z,2.00
2019-05-16T19:59:09.664Z,2.20
2019-05-16T20:01:36.908Z,2.05
2019-05-16T20:04:03.656Z,1.98
2019-05-16T20:06:30.186Z,1.95
2019-05-16T20:08:56.718Z,1.87
2019-05-16T20:11:23.252Z,1.70
2019-05-16T20:13:50.167Z,2.00
2019-05-16T20:16:18.449Z,1.80
2019-05-16T20:18:46.630Z,1.90
2019-05-16T20:21:13.244Z,1.87
2019-05-16T20:23:39.828Z,2.20
2019-05-16T20:26:07.760Z,2.22
2019-05-16T20:28:36.908Z,2.40
2019-05-16T20:31:03.020Z,1.80
2019-05-16T20:33:29.607Z,1.80
2019-05-16T20:35:57.453Z,1.87
2019-05-16T20:38:26.629Z,2.40
2019-05-16T20:40:52.731Z,2.30
2019-05-16T20:43:19.284Z,1.65
2019-05-16T20:45:47.583Z,2.08
2019-05-16T20:48:17.791Z,1.70
2019-05-16T20:50:42.999Z,1.80
2019-05-16T20:53:09.534Z,1.82
2019-05-16T20:55:37.724Z,1.98
2019-05-16T20:58:07.358Z,2.05
2019-05-16T21:00:33.174Z,2.70
2019-05-16T21:02:59.725Z,2.37
2019-05-16T21:05:26.872Z,2.40
2019-05-16T21:07:53.487Z,2.47
2019-05-16T21:10:20.155Z,3.00
2019-05-16T21:12:46.871Z,2.50
2019-05-16T21:15:13.738Z,2.30
2019-05-16T21:17:40.335Z,2.10
2019-05-16T21:20:07.738Z,2.17
2019-05-16T21:22:36.780Z,2.10
2019-05-16T21:25:04.622Z,1.92
2019-05-16T21:27:31.176Z,2.12
2019-05-16T21:29:57.799Z,1.62
2019-05-16T21:32:24.405Z,1.95
2019-05-16T21:34:51.007Z,2.10
2019-05-16T21:37:20.343Z,2.27
2019-05-16T21:39:47.493Z,2.40
2019-05-16T21:42:16.499Z,2.22
2019-05-16T21:44:42.655Z,2.58
2019-05-16T21:47:09.337Z,2.35
2019-05-16T21:49:37.048Z,2.80
2019-05-16T21:52:03.828Z,2.70
2019-05-16T21:54:30.473Z,2.45
2019-05-16T21:56:57.210Z,2.70
2019-05-16T21:59:23.772Z,2.77
2019-05-16T22:01:50.472Z,2.67
2019-05-16T22:04:17.049Z,3.00
2019-05-16T22:06:43.595Z,2.95
2019-05-16T22:09:10.176Z,3.05
2019-05-16T22:11:37.179Z,3.10
2019-05-16T22:14:03.873Z,2.80
2019-05-16T22:16:30.449Z,3.08
2019-05-16T22:18:56.972Z,3.45
2019-05-16T22:21:23.548Z,3.83
2019-05-16T22:23:50.090Z,3.33
2019-05-16T22:26:16.931Z,3.40
2019-05-16T22:28:46.712Z,3.40
2019-05-16T22:31:12.418Z,3.60
2019-05-16T22:33:38.960Z,3.62
2019-05-16T22:36:07.061Z,3.37
2019-05-16T22:38:33.751Z,4.22
2019-05-16T22:41:00.274Z,3.77
2019-05-16T22:43:26.887Z,3.55
2019-05-16T22:45:53.520Z,4.12
2019-05-16T22:48:20.061Z,3.77
2019-05-16T22:50:46.605Z,3.50
2019-05-16T22:53:13.178Z,3.98
2019-05-16T22:55:39.697Z,4.50
2019-05-16T22:58:07.396Z,4.17
2019-05-16T23:00:34.376Z,4.37
2019-05-16T23:03:00.935Z,4.22
2019-05-16T23:05:27.610Z,3.85
2019-05-16T23:08:04.739Z,3.87
2019-05-16T23:10:25.065Z,4.22
2019-05-16T23:12:51.080Z,4.12
2019-05-16T23:15:18.421Z,3.95
2019-05-16T23:17:46.539Z,4.15
2019-05-16T23:20:13.392Z,4.45
2019-05-16T23:22:39.920Z,5.47
2019-05-16T23:25:06.841Z,4.58
2019-05-16T23:27:33.420Z,4.67
2019-05-16T23:29:59.978Z,4.92
2019-05-16T23:32:27.115Z,5.40
2019-05-16T23:34:54.086Z,4.78
2019-05-16T23:37:20.649Z,4.65
2019-05-16T23:39:47.554Z,4.80
2019-05-16T23:42:14.223Z,5.40
2019-05-16T23:44:40.795Z,5.70
2019-05-16T23:47:07.333Z,4.83
2019-05-16T23:49:33.875Z,5.70
2019-05-16T23:52:00.405Z,5.60
2019-05-16T23:54:27.797Z,4.87
2019-05-16T23:56:54.503Z,5.87
2019-05-16T23:59:21.062Z,5.90
